sensor_id;sensor_type;location;lat;lon;timestamp;temperature;humidity
18189;DHT22;9219;50.396;8.546;2022-07-29T00:01:03;20.80;99.90
18189;DHT22;9219;50.396;8.546;2022-07-29T00:03:31;20.10;99.90
18189;DHT22;9219;50.396;8.546;2022-07-29T00:08:40;19.80;99.90
18189;DHT22;9219;50.396;8.546;2022-07-29T00:11:07;19.70;99.90
18189;DHT22;9219;50.396;8.546;2022-07-29T00:13:35;19.40;99.90
18189;DHT22;9219;50.396;8.546;2022-07-29T00:16:03;19.30;99.90
18189;DHT22;9219;50.396;8.546;2022-07-29T00:18:31;19.20;99.90
18189;DHT22;9219;50.396;8.546;2022-07-29T00:20:59;19.40;99.90
18189;DHT22;9219;50.396;8.546;2022-07-29T00:23:27;19.70;99.90
18189;DHT22;9219;50.396;8.546;2022-07-29T00:30:53;19.60;99.90
18189;DHT22;9219;50.396;8.546;2022-07-29T00:33:20;19.50;99.90
18189;DHT22;9219;50.396;8.546;2022-07-29T00:35:50;19.50;99.90
18189;DHT22;9219;50.396;8.546;2022-07-29T00:38:19;19.50;99.90
18189;DHT22;9219;50.396;8.546;2022-07-29T00:40:47;19.90;99.90
18189;DHT22;9219;50.396;8.546;2022-07-29T00:43:15;20.20;99.90
18189;DHT22;9219;50.396;8.546;2022-07-29T00:45:42;20.10;99.90
18189;DHT22;9219;50.396;8.546;2022-07-29T00:53:14;19.40;99.90
18189;DHT22;9219;50.396;8.546;2022-07-29T00:55:42;18.80;99.90
18189;DHT22;9219;50.396;8.546;2022-07-29T00:58:11;18.80;99.90
18189;DHT22;9219;50.396;8.546;2022-07-29T01:00:39;18.80;99.90
18189;DHT22;9219;50.396;8.546;2022-07-29T01:03:07;18.60;99.90
18189;DHT22;9219;50.396;8.546;2022-07-29T01:05:35;18.60;99.90
18189;DHT22;9219;50.396;8.546;2022-07-29T01:13:54;17.40;99.90
18189;DHT22;9219;50.396;8.546;2022-07-29T01:16:31;17.30;99.90
18189;DHT22;9219;50.396;8.546;2022-07-29T01:19:07;17.50;99.90
18189;DHT22;9219;50.396;8.546;2022-07-29T01:21:50;17.60;99.90
18189;DHT22;9219;50.396;8.546;2022-07-29T01:24:39;17.80;99.90
18189;DHT22;9219;50.396;8.546;2022-07-29T01:27:26;17.60;99.90
18189;DHT22;9219;50.396;8.546;2022-07-29T01:30:02;17.60;99.90
18189;DHT22;9219;50.396;8.546;2022-07-29T01:37:06;17.50;99.90
18189;DHT22;9219;50.396;8.546;2022-07-29T01:39:37;17.60;99.90
18189;DHT22;9219;50.396;8.546;2022-07-29T01:42:12;17.90;99.90
18189;DHT22;9219;50.396;8.546;2022-07-29T01:44:46;17.90;99.90
18189;DHT22;9219;50.396;8.546;2022-07-29T01:47:19;17.90;99.90
18189;DHT22;9219;50.396;8.546;2022-07-29T01:49:49;17.80;99.90
18189;DHT22;9219;50.396;8.546;2022-07-29T01:52:23;17.80;99.90
18189;DHT22;9219;50.396;8.546;2022-07-29T01:59:12;17.90;99.90
18189;DHT22;9219;50.396;8.546;2022-07-29T02:01:40;18.50;99.90
18189;DHT22;9219;50.396;8.546;2022-07-29T02:04:12;18.70;99.90
18189;DHT22;9219;50.396;8.546;2022-07-29T02:07:00;18.70;99.90
18189;DHT22;9219;50.396;8.546;2022-07-29T02:09:30;18.90;99.90
18189;DHT22;9219;50.396;8.546;2022-07-29T02:11:59;19.00;99.90
18189;DHT22;9219;50.396;8.546;2022-07-29T02:14:33;19.10;99.90
18189;DHT22;9219;50.396;8.546;2022-07-29T02:22:06;19.20;99.90
18189;DHT22;9219;50.396;8.546;2022-07-29T02:24:35;19.40;99.90
18189;DHT22;9219;50.396;8.546;2022-07-29T02:27:04;19.40;99.90
18189;DHT22;9219;50.396;8.546;2022-07-29T02:29:32;19.40;99.90
18189;DHT22;9219;50.396;8.546;2022-07-29T02:32:03;19.30;99.90
18189;DHT22;9219;50.396;8.546;2022-07-29T02:34:31;19.30;99.90
18189;DHT22;9219;50.396;8.546;2022-07-29T02:37:01;19.30;99.90
18189;DHT22;9219;50.396;8.546;2022-07-29T02:44:35;19.40;99.90
18189;DHT22;9219;50.396;8.546;2022-07-29T02:47:07;19.30;99.90
18189;DHT22;9219;50.396;8.546;2022-07-29T02:49:40;19.20;99.90
18189;DHT22;9219;50.396;8.546;2022-07-29T02:52:16;19.30;99.90
18189;DHT22;9219;50.396;8.546;2022-07-29T02:54:48;19.20;99.90
18189;DHT22;9219;50.396;8.546;2022-07-29T02:57:20;19.00;99.90
18189;DHT22;9219;50.396;8.546;2022-07-29T02:59:51;19.10;99.90
18189;DHT22;9219;50.396;8.546;2022-07-29T03:06:47;19.20;99.90
18189;DHT22;9219;50.396;8.546;2022-07-29T03:09:15;19.00;99.90
18189;DHT22;9219;50.396;8.546;2022-07-29T03:11:44;19.00;99.90
18189;DHT22;9219;50.396;8.546;2022-07-29T03:14:17;18.90;99.90
18189;DHT22;9219;50.396;8.546;2022-07-29T03:16:47;19.10;99.90
18189;DHT22;9219;50.396;8.546;2022-07-29T03:19:15;18.90;99.90
18189;DHT22;9219;50.396;8.546;2022-07-29T03:21:43;18.90;99.90
18189;DHT22;9219;50.396;8.546;2022-07-29T03:29:11;18.90;99.90
18189;DHT22;9219;50.396;8.546;2022-07-29T03:31:39;18.90;99.90
18189;DHT22;9219;50.396;8.546;2022-07-29T03:34:09;18.90;99.90
18189;DHT22;9219;50.396;8.546;2022-07-29T03:36:36;18.80;99.90
18189;DHT22;9219;50.396;8.546;2022-07-29T03:39:04;18.70;99.90
18189;DHT22;9219;50.396;8.546;2022-07-29T03:41:33;18.50;99.90
18189;DHT22;9219;50.396;8.546;2022-07-29T03:44:03;18.20;99.90
18189;DHT22;9219;50.396;8.546;2022-07-29T03:51:31;18.40;99.90
18189;DHT22;9219;50.396;8.546;2022-07-29T03:54:00;18.10;99.90
18189;DHT22;9219;50.396;8.546;2022-07-29T03:56:42;17.90;99.90
18189;DHT22;9219;50.396;8.546;2022-07-29T03:59:17;17.80;99.90
18189;DHT22;9219;50.396;8.546;2022-07-29T04:01:47;17.90;99.90
18189;DHT22;9219;50.396;8.546;2022-07-29T04:04:15;18.00;99.90
18189;DHT22;9219;50.396;8.546;2022-07-29T04:06:45;17.70;99.90
18189;DHT22;9219;50.396;8.546;2022-07-29T04:14:18;17.70;99.90
18189;DHT22;9219;50.396;8.546;2022-07-29T04:16:46;17.80;99.90
18189;DHT22;9219;50.396;8.546;2022-07-29T04:19:14;17.80;99.90
18189;DHT22;9219;50.396;8.546;2022-07-29T04:21:41;17.80;99.90
18189;DHT22;9219;50.396;8.546;2022-07-29T04:24:14;17.80;99.90
18189;DHT22;9219;50.396;8.546;2022-07-29T04:26:42;17.70;99.90
18189;DHT22;9219;50.396;8.546;2022-07-29T04:29:09;17.70;99.90
18189;DHT22;9219;50.396;8.546;2022-07-29T04:36:38;17.80;99.90
18189;DHT22;9219;50.396;8.546;2022-07-29T04:39:06;18.00;99.90
18189;DHT22;9219;50.396;8.546;2022-07-29T04:41:33;18.10;99.90
18189;DHT22;9219;50.396;8.546;2022-07-29T04:44:00;18.10;99.90
18189;DHT22;9219;50.396;8.546;2022-07-29T04:46:32;18.00;99.90
18189;DHT22;9219;50.396;8.546;2022-07-29T04:48:58;17.90;99.90
18189;DHT22;9219;50.396;8.546;2022-07-29T04:51:26;17.90;99.90
18189;DHT22;9219;50.396;8.546;2022-07-29T04:58:19;17.50;99.90
18189;DHT22;9219;50.396;8.546;2022-07-29T05:00:47;17.80;99.90
18189;DHT22;9219;50.396;8.546;2022-07-29T05:03:14;17.70;99.90
18189;DHT22;9219;50.396;8.546;2022-07-29T05:05:42;17.60;99.90
18189;DHT22;9219;50.396;8.546;2022-07-29T05:08:09;17.60;99.90
18189;DHT22;9219;50.396;8.546;2022-07-29T05:10:37;17.70;99.90
18189;DHT22;9219;50.396;8.546;2022-07-29T05:13:07;17.70;99.90
18189;DHT22;9219;50.396;8.546;2022-07-29T05:20:39;17.70;99.90
18189;DHT22;9219;50.396;8.546;2022-07-29T05:23:06;17.80;99.90
18189;DHT22;9219;50.396;8.546;2022-07-29T05:25:34;17.80;99.90
18189;DHT22;9219;50.396;8.546;2022-07-29T05:28:10;17.90;99.90
18189;DHT22;9219;50.396;8.546;2022-07-29T05:30:37;18.00;99.90
18189;DHT22;9219;50.396;8.546;2022-07-29T05:33:05;17.90;99.90
18189;DHT22;9219;50.396;8.546;2022-07-29T05:35:58;17.90;99.90
18189;DHT22;9219;50.396;8.546;2022-07-29T05:43:30;18.00;99.90
18189;DHT22;9219;50.396;8.546;2022-07-29T05:45:58;18.00;99.90
18189;DHT22;9219;50.396;8.546;2022-07-29T05:48:25;18.00;99.90
18189;DHT22;9219;50.396;8.546;2022-07-29T05:50:53;18.10;99.90
18189;DHT22;9219;50.396;8.546;2022-07-29T05:53:21;18.20;99.90
18189;DHT22;9219;50.396;8.546;2022-07-29T05:55:49;18.20;99.90
18189;DHT22;9219;50.396;8.546;2022-07-29T05:58:18;18.30;99.90
18189;DHT22;9219;50.396;8.546;2022-07-29T06:05:42;18.50;99.90
18189;DHT22;9219;50.396;8.546;2022-07-29T06:08:09;18.40;99.90
18189;DHT22;9219;50.396;8.546;2022-07-29T06:10:36;18.50;99.90
18189;DHT22;9219;50.396;8.546;2022-07-29T06:13:04;18.60;99.90
18189;DHT22;9219;50.396;8.546;2022-07-29T06:15:31;18.60;99.90
18189;DHT22;9219;50.396;8.546;2022-07-29T06:17:59;18.70;99.90
18189;DHT22;9219;50.396;8.546;2022-07-29T06:20:28;18.70;99.90
18189;DHT22;9219;50.396;8.546;2022-07-29T06:27:53;18.70;99.90
18189;DHT22;9219;50.396;8.546;2022-07-29T06:30:21;18.80;99.90
18189;DHT22;9219;50.396;8.546;2022-07-29T06:32:50;18.60;99.90
18189;DHT22;9219;50.396;8.546;2022-07-29T06:35:17;18.50;99.90
18189;DHT22;9219;50.396;8.546;2022-07-29T06:38:05;18.50;99.90
18189;DHT22;9219;50.396;8.546;2022-07-29T06:40:52;18.60;99.90
18189;DHT22;9219;50.396;8.546;2022-07-29T06:43:33;18.80;99.90
18189;DHT22;9219;50.396;8.546;2022-07-29T06:46:22;18.90;99.90
18189;DHT22;9219;50.396;8.546;2022-07-29T06:48:50;19.10;99.90
18189;DHT22;9219;50.396;8.546;2022-07-29T06:51:19;19.30;99.90
18189;DHT22;9219;50.396;8.546;2022-07-29T06:53:49;19.50;99.90
18189;DHT22;9219;50.396;8.546;2022-07-29T06:56:31;19.50;99.90
18189;DHT22;9219;50.396;8.546;2022-07-29T06:59:06;19.70;99.90
18189;DHT22;9219;50.396;8.546;2022-07-29T07:01:35;19.90;99.90
18189;DHT22;9219;50.396;8.546;2022-07-29T07:09:03;19.80;99.90
18189;DHT22;9219;50.396;8.546;2022-07-29T07:11:31;20.10;99.90
18189;DHT22;9219;50.396;8.546;2022-07-29T07:13:58;20.00;99.90
18189;DHT22;9219;50.396;8.546;2022-07-29T07:16:40;20.00;99.90
18189;DHT22;9219;50.396;8.546;2022-07-29T07:19:07;19.90;99.90
18189;DHT22;9219;50.396;8.546;2022-07-29T07:21:35;19.60;99.90
18189;DHT22;9219;50.396;8.546;2022-07-29T07:24:04;19.90;99.90
18189;DHT22;9219;50.396;8.546;2022-07-29T07:30:46;20.20;99.90
18189;DHT22;9219;50.396;8.546;2022-07-29T07:33:14;20.20;99.90
18189;DHT22;9219;50.396;8.546;2022-07-29T07:35:45;20.10;99.90
18189;DHT22;9219;50.396;8.546;2022-07-29T07:38:12;19.90;99.90
18189;DHT22;9219;50.396;8.546;2022-07-29T07:40:40;20.00;99.90
18189;DHT22;9219;50.396;8.546;2022-07-29T07:43:09;20.40;99.90
18189;DHT22;9219;50.396;8.546;2022-07-29T07:45:36;20.80;99.90
18189;DHT22;9219;50.396;8.546;2022-07-29T07:48:08;21.30;99.90
18189;DHT22;9219;50.396;8.546;2022-07-29T07:55:40;21.70;99.90
18189;DHT22;9219;50.396;8.546;2022-07-29T07:58:28;22.10;99.90
18189;DHT22;9219;50.396;8.546;2022-07-29T08:00:55;22.20;99.90
18189;DHT22;9219;50.396;8.546;2022-07-29T08:03:22;22.50;99.90
18189;DHT22;9219;50.396;8.546;2022-07-29T08:05:50;22.60;99.90
18189;DHT22;9219;50.396;8.546;2022-07-29T08:08:18;22.70;99.90
18189;DHT22;9219;50.396;8.546;2022-07-29T08:10:47;22.90;99.90
18189;DHT22;9219;50.396;8.546;2022-07-29T08:16:16;23.10;99.90
18189;DHT22;9219;50.396;8.546;2022-07-29T08:18:45;23.90;99.90
18189;DHT22;9219;50.396;8.546;2022-07-29T08:21:14;24.00;99.90
18189;DHT22;9219;50.396;8.546;2022-07-29T08:23:42;24.30;99.90
18189;DHT22;9219;50.396;8.546;2022-07-29T08:26:42;24.50;99.90
18189;DHT22;9219;50.396;8.546;2022-07-29T08:29:10;24.60;99.90
18189;DHT22;9219;50.396;8.546;2022-07-29T08:31:42;24.90;99.90
18189;DHT22;9219;50.396;8.546;2022-07-29T08:39:17;25.20;99.90
18189;DHT22;9219;50.396;8.546;2022-07-29T08:41:44;25.50;99.90
18189;DHT22;9219;50.396;8.546;2022-07-29T08:44:23;25.60;99.90
18189;DHT22;9219;50.396;8.546;2022-07-29T08:46:56;25.60;99.90
18189;DHT22;9219;50.396;8.546;2022-07-29T08:49:24;25.60;99.90
18189;DHT22;9219;50.396;8.546;2022-07-29T08:51:53;25.60;99.90
18189;DHT22;9219;50.396;8.546;2022-07-29T08:54:23;25.70;99.90
18189;DHT22;9219;50.396;8.546;2022-07-29T08:56:51;25.70;99.90
18189;DHT22;9219;50.396;8.546;2022-07-29T09:04:30;26.30;99.90
18189;DHT22;9219;50.396;8.546;2022-07-29T09:07:01;26.50;99.90
18189;DHT22;9219;50.396;8.546;2022-07-29T09:09:34;26.60;99.90
18189;DHT22;9219;50.396;8.546;2022-07-29T09:12:02;26.80;99.90
18189;DHT22;9219;50.396;8.546;2022-07-29T09:14:32;27.00;99.90
18189;DHT22;9219;50.396;8.546;2022-07-29T09:17:00;27.00;99.90
18189;DHT22;9219;50.396;8.546;2022-07-29T09:19:31;27.10;99.90
18189;DHT22;9219;50.396;8.546;2022-07-29T09:24:55;27.20;99.90
18189;DHT22;9219;50.396;8.546;2022-07-29T09:27:23;27.70;99.90
18189;DHT22;9219;50.396;8.546;2022-07-29T09:29:57;27.80;99.90
18189;DHT22;9219;50.396;8.546;2022-07-29T09:32:26;28.20;99.90
18189;DHT22;9219;50.396;8.546;2022-07-29T09:35:17;28.30;99.90
18189;DHT22;9219;50.396;8.546;2022-07-29T09:37:45;28.60;99.90
18189;DHT22;9219;50.396;8.546;2022-07-29T09:40:18;28.50;99.90
18189;DHT22;9219;50.396;8.546;2022-07-29T09:47:52;28.30;99.90
18189;DHT22;9219;50.396;8.546;2022-07-29T09:50:20;28.50;99.90
18189;DHT22;9219;50.396;8.546;2022-07-29T09:52:52;28.70;99.90
18189;DHT22;9219;50.396;8.546;2022-07-29T09:55:20;28.60;99.90
18189;DHT22;9219;50.396;8.546;2022-07-29T09:57:48;28.80;99.90
18189;DHT22;9219;50.396;8.546;2022-07-29T10:00:19;29.20;99.90
18189;DHT22;9219;50.396;8.546;2022-07-29T10:02:52;29.40;99.90
18189;DHT22;9219;50.396;8.546;2022-07-29T10:10:38;30.00;99.90
18189;DHT22;9219;50.396;8.546;2022-07-29T10:13:08;30.40;99.90
18189;DHT22;9219;50.396;8.546;2022-07-29T10:15:42;30.40;99.90
18189;DHT22;9219;50.396;8.546;2022-07-29T10:18:14;30.50;99.90
18189;DHT22;9219;50.396;8.546;2022-07-29T10:20:43;30.60;99.90
18189;DHT22;9219;50.396;8.546;2022-07-29T10:23:11;30.50;99.90
18189;DHT22;9219;50.396;8.546;2022-07-29T10:25:40;30.60;99.90
18189;DHT22;9219;50.396;8.546;2022-07-29T10:31:08;30.30;99.90
18189;DHT22;9219;50.396;8.546;2022-07-29T10:33:51;30.70;99.90
18189;DHT22;9219;50.396;8.546;2022-07-29T10:36:27;30.70;99.90
18189;DHT22;9219;50.396;8.546;2022-07-29T10:39:05;30.80;99.90
18189;DHT22;9219;50.396;8.546;2022-07-29T10:42:00;30.60;99.90
18189;DHT22;9219;50.396;8.546;2022-07-29T10:44:31;30.70;99.90
18189;DHT22;9219;50.396;8.546;2022-07-29T10:47:01;30.80;99.90
18189;DHT22;9219;50.396;8.546;2022-07-29T10:54:53;31.20;99.90
18189;DHT22;9219;50.396;8.546;2022-07-29T10:57:26;31.90;99.90
18189;DHT22;9219;50.396;8.546;2022-07-29T11:00:30;31.80;99.90
18189;DHT22;9219;50.396;8.546;2022-07-29T11:02:58;32.00;99.90
18189;DHT22;9219;50.396;8.546;2022-07-29T11:05:51;32.10;99.90
18189;DHT22;9219;50.396;8.546;2022-07-29T11:08:24;31.30;99.70
18189;DHT22;9219;50.396;8.546;2022-07-29T11:15:58;31.50;99.90
18189;DHT22;9219;50.396;8.546;2022-07-29T11:18:25;32.10;99.90
18189;DHT22;9219;50.396;8.546;2022-07-29T11:20:53;32.20;99.90
18189;DHT22;9219;50.396;8.546;2022-07-29T11:23:26;31.90;99.90
18189;DHT22;9219;50.396;8.546;2022-07-29T11:26:17;32.40;99.90
18189;DHT22;9219;50.396;8.546;2022-07-29T11:28:53;32.50;99.90
18189;DHT22;9219;50.396;8.546;2022-07-29T11:34:48;32.50;99.90
18189;DHT22;9219;50.396;8.546;2022-07-29T11:37:21;32.70;99.80
18189;DHT22;9219;50.396;8.546;2022-07-29T11:40:16;33.00;99.90
18189;DHT22;9219;50.396;8.546;2022-07-29T11:42:46;32.90;99.20
18189;DHT22;9219;50.396;8.546;2022-07-29T11:45:25;32.90;99.90
18189;DHT22;9219;50.396;8.546;2022-07-29T11:48:20;33.20;99.00
18189;DHT22;9219;50.396;8.546;2022-07-29T11:53:36;33.00;99.00
18189;DHT22;9219;50.396;8.546;2022-07-29T11:56:04;33.30;98.70
18189;DHT22;9219;50.396;8.546;2022-07-29T11:58:36;33.30;98.30
18189;DHT22;9219;50.396;8.546;2022-07-29T12:01:04;33.30;97.40
18189;DHT22;9219;50.396;8.546;2022-07-29T12:03:32;33.20;98.50
18189;DHT22;9219;50.396;8.546;2022-07-29T12:06:10;33.20;98.60
18189;DHT22;9219;50.396;8.546;2022-07-29T12:08:41;33.10;98.20
18189;DHT22;9219;50.396;8.546;2022-07-29T12:11:16;33.20;98.00
18189;DHT22;9219;50.396;8.546;2022-07-29T12:19:00;33.30;98.10
18189;DHT22;9219;50.396;8.546;2022-07-29T12:21:29;33.00;97.90
18189;DHT22;9219;50.396;8.546;2022-07-29T12:24:20;33.20;97.90
18189;DHT22;9219;50.396;8.546;2022-07-29T12:26:54;33.20;98.50
18189;DHT22;9219;50.396;8.546;2022-07-29T12:29:23;33.40;97.30
18189;DHT22;9219;50.396;8.546;2022-07-29T12:32:02;33.50;97.70
18189;DHT22;9219;50.396;8.546;2022-07-29T12:34:42;33.60;97.00
18189;DHT22;9219;50.396;8.546;2022-07-29T12:42:15;33.70;97.50
18189;DHT22;9219;50.396;8.546;2022-07-29T12:44:46;33.30;96.70
18189;DHT22;9219;50.396;8.546;2022-07-29T12:47:13;33.30;97.10
18189;DHT22;9219;50.396;8.546;2022-07-29T12:49:41;33.20;96.60
18189;DHT22;9219;50.396;8.546;2022-07-29T12:52:26;33.30;97.70
18189;DHT22;9219;50.396;8.546;2022-07-29T12:54:54;32.80;98.40
18189;DHT22;9219;50.396;8.546;2022-07-29T12:57:22;33.20;98.50
18189;DHT22;9219;50.396;8.546;2022-07-29T13:05:57;33.30;97.20
18189;DHT22;9219;50.396;8.546;2022-07-29T13:08:24;33.40;97.00
18189;DHT22;9219;50.396;8.546;2022-07-29T13:10:51;33.30;96.50
18189;DHT22;9219;50.396;8.546;2022-07-29T13:13:19;33.40;97.10
18189;DHT22;9219;50.396;8.546;2022-07-29T13:16:06;33.40;97.30
18189;DHT22;9219;50.396;8.546;2022-07-29T13:18:34;33.50;97.20
18189;DHT22;9219;50.396;8.546;2022-07-29T13:21:12;33.70;96.80
18189;DHT22;9219;50.396;8.546;2022-07-29T13:28:45;33.90;97.00
18189;DHT22;9219;50.396;8.546;2022-07-29T13:31:16;34.10;96.90
18189;DHT22;9219;50.396;8.546;2022-07-29T13:33:44;34.10;96.90
18189;DHT22;9219;50.396;8.546;2022-07-29T13:36:12;34.00;95.80
18189;DHT22;9219;50.396;8.546;2022-07-29T13:38:40;34.00;96.30
18189;DHT22;9219;50.396;8.546;2022-07-29T13:41:08;33.90;96.80
18189;DHT22;9219;50.396;8.546;2022-07-29T13:43:39;33.80;96.90
18189;DHT22;9219;50.396;8.546;2022-07-29T13:46:12;33.80;97.00
18189;DHT22;9219;50.396;8.546;2022-07-29T13:53:59;33.70;96.30
18189;DHT22;9219;50.396;8.546;2022-07-29T13:56:28;33.30;96.20
18189;DHT22;9219;50.396;8.546;2022-07-29T13:58:56;33.30;96.40
18189;DHT22;9219;50.396;8.546;2022-07-29T14:01:24;33.20;96.60
18189;DHT22;9219;50.396;8.546;2022-07-29T14:03:52;33.00;96.70
18189;DHT22;9219;50.396;8.546;2022-07-29T14:06:19;32.90;96.80
18189;DHT22;9219;50.396;8.546;2022-07-29T14:08:48;32.90;97.20
18189;DHT22;9219;50.396;8.546;2022-07-29T14:11:17;32.80;97.30
18189;DHT22;9219;50.396;8.546;2022-07-29T14:19:20;32.50;97.50
18189;DHT22;9219;50.396;8.546;2022-07-29T14:21:48;32.30;98.10
18189;DHT22;9219;50.396;8.546;2022-07-29T14:24:16;32.10;98.30
18189;DHT22;9219;50.396;8.546;2022-07-29T14:26:49;32.00;98.50
18189;DHT22;9219;50.396;8.546;2022-07-29T14:29:17;31.90;98.70
18189;DHT22;9219;50.396;8.546;2022-07-29T14:31:45;31.70;98.60
18189;DHT22;9219;50.396;8.546;2022-07-29T14:34:15;31.60;98.80
18189;DHT22;9219;50.396;8.546;2022-07-29T14:44:17;30.80;99.90
18189;DHT22;9219;50.396;8.546;2022-07-29T14:46:46;29.60;99.90
18189;DHT22;9219;50.396;8.546;2022-07-29T14:49:15;28.80;99.90
18189;DHT22;9219;50.396;8.546;2022-07-29T14:51:43;27.80;99.90
18189;DHT22;9219;50.396;8.546;2022-07-29T14:54:10;27.30;99.90
18189;DHT22;9219;50.396;8.546;2022-07-29T14:56:37;26.70;99.90
18189;DHT22;9219;50.396;8.546;2022-07-29T14:59:12;25.80;99.90
18189;DHT22;9219;50.396;8.546;2022-07-29T15:04:22;24.90;99.90
18189;DHT22;9219;50.396;8.546;2022-07-29T15:06:50;24.50;99.90
18189;DHT22;9219;50.396;8.546;2022-07-29T15:09:18;24.30;99.90
18189;DHT22;9219;50.396;8.546;2022-07-29T15:11:46;24.50;99.90
18189;DHT22;9219;50.396;8.546;2022-07-29T15:14:14;24.60;99.90
18189;DHT22;9219;50.396;8.546;2022-07-29T15:16:42;24.80;99.90
18189;DHT22;9219;50.396;8.546;2022-07-29T15:19:14;25.10;99.90
18189;DHT22;9219;50.396;8.546;2022-07-29T15:21:45;25.10;99.90
18189;DHT22;9219;50.396;8.546;2022-07-29T15:29:21;25.00;99.90
18189;DHT22;9219;50.396;8.546;2022-07-29T15:31:49;24.70;99.90
18189;DHT22;9219;50.396;8.546;2022-07-29T15:34:16;24.50;99.90
18189;DHT22;9219;50.396;8.546;2022-07-29T15:36:45;24.60;99.90
18189;DHT22;9219;50.396;8.546;2022-07-29T15:39:19;24.50;99.90
18189;DHT22;9219;50.396;8.546;2022-07-29T15:41:48;24.50;99.90
18189;DHT22;9219;50.396;8.546;2022-07-29T15:44:16;24.20;99.90
18189;DHT22;9219;50.396;8.546;2022-07-29T15:46:45;24.10;99.90
18189;DHT22;9219;50.396;8.546;2022-07-29T15:54:53;23.40;99.90
18189;DHT22;9219;50.396;8.546;2022-07-29T15:57:22;22.90;99.90
18189;DHT22;9219;50.396;8.546;2022-07-29T15:59:49;22.70;99.90
18189;DHT22;9219;50.396;8.546;2022-07-29T16:02:17;22.60;99.90
18189;DHT22;9219;50.396;8.546;2022-07-29T16:04:44;22.80;99.90
18189;DHT22;9219;50.396;8.546;2022-07-29T16:07:12;22.80;99.90
18189;DHT22;9219;50.396;8.546;2022-07-29T16:09:40;22.80;99.90
18189;DHT22;9219;50.396;8.546;2022-07-29T16:17:58;22.80;99.90
18189;DHT22;9219;50.396;8.546;2022-07-29T16:20:26;22.80;99.90
18189;DHT22;9219;50.396;8.546;2022-07-29T16:22:54;22.90;99.90
18189;DHT22;9219;50.396;8.546;2022-07-29T16:25:22;22.80;99.90
18189;DHT22;9219;50.396;8.546;2022-07-29T16:28:10;22.90;99.90
18189;DHT22;9219;50.396;8.546;2022-07-29T16:30:38;23.10;99.90
18189;DHT22;9219;50.396;8.546;2022-07-29T16:33:06;23.30;99.90
18189;DHT22;9219;50.396;8.546;2022-07-29T16:43:35;23.40;99.90
18189;DHT22;9219;50.396;8.546;2022-07-29T16:46:02;23.40;99.90
18189;DHT22;9219;50.396;8.546;2022-07-29T16:48:30;23.50;99.90
18189;DHT22;9219;50.396;8.546;2022-07-29T16:50:58;23.60;99.90
18189;DHT22;9219;50.396;8.546;2022-07-29T16:53:26;23.70;99.90
18189;DHT22;9219;50.396;8.546;2022-07-29T16:55:56;23.80;99.90
18189;DHT22;9219;50.396;8.546;2022-07-29T16:58:23;23.70;99.90
18189;DHT22;9219;50.396;8.546;2022-07-29T17:03:48;24.00;99.90
18189;DHT22;9219;50.396;8.546;2022-07-29T17:06:35;24.20;99.90
18189;DHT22;9219;50.396;8.546;2022-07-29T17:09:04;24.10;99.90
18189;DHT22;9219;50.396;8.546;2022-07-29T17:11:32;24.10;99.90
18189;DHT22;9219;50.396;8.546;2022-07-29T17:14:20;24.10;99.90
18189;DHT22;9219;50.396;8.546;2022-07-29T17:16:50;24.10;99.90
18189;DHT22;9219;50.396;8.546;2022-07-29T17:19:29;24.20;99.90
18189;DHT22;9219;50.396;8.546;2022-07-29T17:27:02;24.40;99.90
18189;DHT22;9219;50.396;8.546;2022-07-29T17:29:30;24.30;99.90
18189;DHT22;9219;50.396;8.546;2022-07-29T17:32:00;24.30;99.90
18189;DHT22;9219;50.396;8.546;2022-07-29T17:34:28;24.40;99.90
18189;DHT22;9219;50.396;8.546;2022-07-29T17:36:56;24.40;99.90
18189;DHT22;9219;50.396;8.546;2022-07-29T17:39:24;24.40;99.90
18189;DHT22;9219;50.396;8.546;2022-07-29T17:41:52;24.30;99.90
18189;DHT22;9219;50.396;8.546;2022-07-29T17:52:19;24.00;99.90
18189;DHT22;9219;50.396;8.546;2022-07-29T17:54:46;24.00;99.90
18189;DHT22;9219;50.396;8.546;2022-07-29T17:57:14;23.90;99.90
18189;DHT22;9219;50.396;8.546;2022-07-29T17:59:42;23.90;99.90
18189;DHT22;9219;50.396;8.546;2022-07-29T18:02:10;23.70;99.90
18189;DHT22;9219;50.396;8.546;2022-07-29T18:04:40;23.50;99.90
18189;DHT22;9219;50.396;8.546;2022-07-29T18:07:08;23.40;99.90
18189;DHT22;9219;50.396;8.546;2022-07-29T18:09:38;23.50;99.90
18189;DHT22;9219;50.396;8.546;2022-07-29T18:17:26;23.60;99.90
18189;DHT22;9219;50.396;8.546;2022-07-29T18:20:14;23.40;99.90
18189;DHT22;9219;50.396;8.546;2022-07-29T18:22:42;23.50;99.90
18189;DHT22;9219;50.396;8.546;2022-07-29T18:25:09;23.40;99.90
18189;DHT22;9219;50.396;8.546;2022-07-29T18:27:38;23.40;99.90
18189;DHT22;9219;50.396;8.546;2022-07-29T18:30:07;23.30;99.90
18189;DHT22;9219;50.396;8.546;2022-07-29T18:32:38;23.40;99.90
18189;DHT22;9219;50.396;8.546;2022-07-29T18:37:45;23.50;99.90
18189;DHT22;9219;50.396;8.546;2022-07-29T18:40:28;23.60;99.90
18189;DHT22;9219;50.396;8.546;2022-07-29T18:42:57;23.50;99.90
18189;DHT22;9219;50.396;8.546;2022-07-29T18:45:25;23.30;99.90
18189;DHT22;9219;50.396;8.546;2022-07-29T18:47:55;23.30;99.90
18189;DHT22;9219;50.396;8.546;2022-07-29T18:50:23;23.40;99.90
18189;DHT22;9219;50.396;8.546;2022-07-29T18:52:59;23.40;99.90
18189;DHT22;9219;50.396;8.546;2022-07-29T19:00:35;23.50;99.90
18189;DHT22;9219;50.396;8.546;2022-07-29T19:03:03;22.80;99.90
18189;DHT22;9219;50.396;8.546;2022-07-29T19:05:32;22.70;99.90
18189;DHT22;9219;50.396;8.546;2022-07-29T19:08:02;22.80;99.90
18189;DHT22;9219;50.396;8.546;2022-07-29T19:10:30;22.90;99.90
18189;DHT22;9219;50.396;8.546;2022-07-29T19:12:57;22.90;99.90
18189;DHT22;9219;50.396;8.546;2022-07-29T19:15:26;22.90;99.90
18189;DHT22;9219;50.396;8.546;2022-07-29T19:23:03;22.90;99.90
18189;DHT22;9219;50.396;8.546;2022-07-29T19:25:31;22.90;99.90
18189;DHT22;9219;50.396;8.546;2022-07-29T19:28:01;22.80;99.90
18189;DHT22;9219;50.396;8.546;2022-07-29T19:30:29;22.80;99.90
18189;DHT22;9219;50.396;8.546;2022-07-29T19:32:57;22.80;99.90
18189;DHT22;9219;50.396;8.546;2022-07-29T19:35:25;22.80;99.90
18189;DHT22;9219;50.396;8.546;2022-07-29T19:38:10;22.80;99.90
18189;DHT22;9219;50.396;8.546;2022-07-29T19:40:37;22.70;99.90
18189;DHT22;9219;50.396;8.546;2022-07-29T19:48:38;22.60;99.90
18189;DHT22;9219;50.396;8.546;2022-07-29T19:51:12;22.40;99.90
18189;DHT22;9219;50.396;8.546;2022-07-29T19:53:45;22.40;99.90
18189;DHT22;9219;50.396;8.546;2022-07-29T19:56:13;22.30;99.90
18189;DHT22;9219;50.396;8.546;2022-07-29T19:58:43;22.30;99.90
18189;DHT22;9219;50.396;8.546;2022-07-29T20:01:11;22.00;99.90
18189;DHT22;9219;50.396;8.546;2022-07-29T20:03:40;22.10;99.90
18189;DHT22;9219;50.396;8.546;2022-07-29T20:11:37;22.10;99.90
18189;DHT22;9219;50.396;8.546;2022-07-29T20:14:10;21.70;99.90
18189;DHT22;9219;50.396;8.546;2022-07-29T20:16:39;21.60;99.90
18189;DHT22;9219;50.396;8.546;2022-07-29T20:19:08;21.50;99.90
18189;DHT22;9219;50.396;8.546;2022-07-29T20:21:36;21.60;99.90
18189;DHT22;9219;50.396;8.546;2022-07-29T20:24:04;21.70;99.90
18189;DHT22;9219;50.396;8.546;2022-07-29T20:26:32;21.80;99.90